CSCL Dalian — VRBH4 — position and weather

sailwx.info

Track history (hours):
 
Tides and Currents Weather Stations Pressure Air Temp Water Temp Dewpoint Dewpoint Depression Visibility Wind Speed Wind Dir Waves Ship Positions

CSCL Dalian

Last reported at 2016-May-31 19:34 UTC. Time now 2016-May-31 19:55 UTC.
Position N 43°31' E 009°51'.

Length 259.8 m; ; draft 11 m.

Type: Ship (hazmat cat A). MMSI: 477014600.

Date/timePositionNaut miles runAvg speedWind from/ knotsBaromVisibWave heightAir tempDewpointWater temp
2016-May-31 19:34N 43°31' E 009°51'7 6.6
2016-May-31 18:34N 43°30' E 010°00'7 7.0
2016-May-31 17:34N 43°31' E 010°10'6 6.2
2016-May-31 16:34N 43°33' E 010°18'1 1.2
2016-May-31 15:29N 43°35' E 010°18'0 0.0
2016-May-31 14:33N 43°35' E 010°18'0 0.0
2016-May-31 13:33N 43°35' E 010°18'0 0.0
2016-May-31 12:33N 43°35' E 010°18'0 0.0
2016-May-31 11:33N 43°35' E 010°18'0 0.0
2016-May-31 10:33N 43°35' E 010°18'0 0.0
2016-May-31 09:33N 43°35' E 010°18'0 0.0
2016-May-31 08:33N 43°35' E 010°18'0 0.0
2016-May-31 07:33N 43°35' E 010°18'0 0.0
2016-May-31 06:33N 43°35' E 010°18'0 0.0
2016-May-31 04:33N 43°35' E 010°18'0 0.0
2016-May-31 03:33N 43°35' E 010°18'0 0.0
2016-May-31 02:33N 43°35' E 010°18'0 0.0
2016-May-31 01:33N 43°35' E 010°18'0 0.0
2016-May-31 00:33N 43°35' E 010°18'0 0.0
2016-May-30 23:33N 43°35' E 010°18'0 0.0
2016-May-30 22:33N 43°35' E 010°18'0 0.0
2016-May-30 21:33N 43°35' E 010°18'0 0.0
2016-May-30 20:33N 43°35' E 010°18'0 0.0
2016-May-30 19:33N 43°35' E 010°18'0 0.0
2016-May-30 18:33N 43°35' E 010°18'0 0.0
2016-May-30 17:33N 43°35' E 010°18'0 0.4
2016-May-30 16:33N 43°34' E 010°18'8 8.3
2016-May-30 15:33N 43°27' E 010°12'1717.4
2016-May-30 14:33N 43°11' E 010°05'1515.5
2016-May-30 13:33N 42°56' E 009°59'1515.5
2016-May-30 12:33N 42°41' E 009°53'1515.4
2016-May-30 11:33N 42°26' E 009°51'1615.5
2016-May-30 10:33N 42°10' E 009°52'19114.3
2016-May-29 21:11N 38°59' E 009°29'1015.2
2016-May-29 20:32N 39°03' E 009°17'1212.6
2016-May-29 19:33N 39°12' E 009°06'2 1.7
2016-May-29 18:31N 39°13' E 009°04'0 0.0
2016-May-29 17:31N 39°13' E 009°04'0 0.0
2016-May-29 16:31N 39°13' E 009°04'0 0.0
2016-May-29 15:31N 39°13' E 009°04'0 0.0
2016-May-29 14:31N 39°13' E 009°04'0 0.0
2016-May-29 13:31N 39°13' E 009°04'0 0.0
2016-May-29 12:31N 39°13' E 009°04'0 0.0
2016-May-29 11:31N 39°13' E 009°04'0 0.0
2016-May-29 10:31N 39°13' E 009°04'0 0.0
2016-May-29 09:31N 39°13' E 009°04'0 0.0
2016-May-29 08:31N 39°13' E 009°04'0 0.0
2016-May-29 07:31N 39°13' E 009°04'0 0.0
2016-May-29 06:31N 39°13' E 009°04'0 0.0
2016-May-29 05:31N 39°13' E 009°04'0 0.0
2016-May-29 04:33N 39°13' E 009°04'6 6.0
2016-May-29 03:33N 39°07' E 009°07'1212.0
2016-May-29 02:33N 38°56' E 009°05'1716.4
2016-May-29 01:33N 38°42' E 008°53'1515.3
2016-May-29 00:33N 38°39' E 008°34'1322.8
2016-May-29 00:00N 38°36' E 008°18'3815.7 050 / 81013.0 5.4 0.519.017.420.0
2016-May-28 21:33N 38°42' E 007°30'14617.6
2016-May-28 13:14N 38°52' E 004°23'3417.2
2016-May-28 11:15N 38°55' E 003°39'1217.8
2016-May-28 10:33N 38°56' E 003°23'1817.9
2016-May-28 09:33N 38°57' E 003°00'1818.3
2016-May-28 08:33N 39°01' E 002°37'1818.3
2016-May-28 07:33N 39°07' E 002°15'1818.2
2016-May-28 06:33N 39°12' E 001°52'1818.0
2016-May-28 05:33N 39°18' E 001°30'1919.1
2016-May-28 04:33N 39°23' E 001°06'1918.9
2016-May-28 03:33N 39°25' E 000°42'4218.5
2016-May-28 01:18N 39°25' W 000°12'6 7.9
2016-May-28 00:33N 39°27' W 000°19'0 0.0
2016-May-27 23:31N 39°27' W 000°19'0 0.0
2016-May-27 22:31N 39°27' W 000°19'0 0.0
2016-May-27 21:31N 39°27' W 000°19'0 0.0
2016-May-27 20:31N 39°27' W 000°19'0 0.0
2016-May-27 19:31N 39°27' W 000°19'0 0.0
2016-May-27 18:31N 39°27' W 000°19'0 0.0
2016-May-27 17:31N 39°27' W 000°19'0 0.0
2016-May-27 16:31N 39°27' W 000°19'0 0.0
2016-May-27 15:31N 39°27' W 000°19'0 0.0
2016-May-27 14:31N 39°27' W 000°19'0 0.0
2016-May-27 13:25N 39°27' W 000°19'0 0.0
2016-May-27 12:28N 39°27' W 000°19'0 0.0
2016-May-27 11:31N 39°27' W 000°19'0 0.0
2016-May-27 10:31N 39°27' W 000°19'0 0.0
2016-May-27 09:31N 39°27' W 000°19'0 0.0
2016-May-27 08:31N 39°27' W 000°19'0 0.0
2016-May-27 07:31N 39°27' W 000°19'2 2.4
2016-May-27 06:33N 39°25' W 000°17'2 1.8
2016-May-27 05:33N 39°25' W 000°15'6012.0
2016-May-27 00:33N 38°30' E 000°17'1526.0
2016-May-27 00:00N 38°18' E 000°06'3 6.1 220 / 101014.0 5.4 0.519.015.620.0
2016-May-26 23:33N 38°15' E 000°05'1716.8
2016-May-26 22:34N 38°01' W 000°06'1717.1
2016-May-26 21:33N 37°47' W 000°18'1716.8
2016-May-26 20:33N 37°32' W 000°29'1716.7
2016-May-26 19:33N 37°23' W 000°46'23116.5
2016-May-26 05:33N 35°59' W 005°15'13 1.3
2016-May-25 19:28N 35°54' W 005°30'25813.3
2016-May-25 00:00N 35°48' W 010°48'1615.8 280 / 121015.010.8 1.017.013.516.0
2016-May-24 23:00N 35°42' W 011°06'35814.9 300 / 151016.310.8 17.011.514.0
2016-May-23 23:00N 35°12' W 018°24'35315.4 100 / 181019.3 5.4 18.014.618.0
2016-May-23 00:05N 34°24' W 025°30'1015.4
2016-May-22 23:27N 34°22' W 025°41'1515.4
2016-May-22 22:28N 34°19' W 025°59'  
Track history (hours):
 
Tides and Currents Weather Stations Pressure Air Temp Water Temp Dewpoint Dewpoint Depression Visibility Wind Speed Wind Dir Waves Ship Positions

CSCL Dalian

Last reported at 2016-May-31 19:34 UTC. Time now 2016-May-31 19:55 UTC.
Position N 43°31' E 009°51'.

Length 259.8 m; ; draft 11 m.

Type: Ship (hazmat cat A). MMSI: 477014600.

Date/timePositionNaut miles runAvg speedWind from/ knotsBaromVisibWave heightAir tempDewpointWater temp
2016-May-31 19:34N 43°31' E 009°51'7 6.6
2016-May-31 18:34N 43°30' E 010°00'7 7.0
2016-May-31 17:34N 43°31' E 010°10'6 6.2
2016-May-31 16:34N 43°33' E 010°18'1 1.2
2016-May-31 15:29N 43°35' E 010°18'0 0.0
2016-May-31 14:33N 43°35' E 010°18'0 0.0
2016-May-31 13:33N 43°35' E 010°18'0 0.0
2016-May-31 12:33N 43°35' E 010°18'0 0.0
2016-May-31 11:33N 43°35' E 010°18'0 0.0
2016-May-31 10:33N 43°35' E 010°18'0 0.0
2016-May-31 09:33N 43°35' E 010°18'0 0.0
2016-May-31 08:33N 43°35' E 010°18'0 0.0
2016-May-31 07:33N 43°35' E 010°18'0 0.0
2016-May-31 06:33N 43°35' E 010°18'0 0.0
2016-May-31 04:33N 43°35' E 010°18'0 0.0
2016-May-31 03:33N 43°35' E 010°18'0 0.0
2016-May-31 02:33N 43°35' E 010°18'0 0.0
2016-May-31 01:33N 43°35' E 010°18'0 0.0
2016-May-31 00:33N 43°35' E 010°18'0 0.0
2016-May-30 23:33N 43°35' E 010°18'0 0.0
2016-May-30 22:33N 43°35' E 010°18'0 0.0
2016-May-30 21:33N 43°35' E 010°18'0 0.0
2016-May-30 20:33N 43°35' E 010°18'0 0.0
2016-May-30 19:33N 43°35' E 010°18'0 0.0
2016-May-30 18:33N 43°35' E 010°18'0 0.0
2016-May-30 17:33N 43°35' E 010°18'0 0.4
2016-May-30 16:33N 43°34' E 010°18'8 8.3
2016-May-30 15:33N 43°27' E 010°12'1717.4
2016-May-30 14:33N 43°11' E 010°05'1515.5
2016-May-30 13:33N 42°56' E 009°59'1515.5
2016-May-30 12:33N 42°41' E 009°53'1515.4
2016-May-30 11:33N 42°26' E 009°51'1615.5
2016-May-30 10:33N 42°10' E 009°52'19114.3
2016-May-29 21:11N 38°59' E 009°29'1015.2
2016-May-29 20:32N 39°03' E 009°17'1212.6
2016-May-29 19:33N 39°12' E 009°06'2 1.7
2016-May-29 18:31N 39°13' E 009°04'0 0.0
2016-May-29 17:31N 39°13' E 009°04'0 0.0
2016-May-29 16:31N 39°13' E 009°04'0 0.0
2016-May-29 15:31N 39°13' E 009°04'0 0.0
2016-May-29 14:31N 39°13' E 009°04'0 0.0
2016-May-29 13:31N 39°13' E 009°04'0 0.0
2016-May-29 12:31N 39°13' E 009°04'0 0.0
2016-May-29 11:31N 39°13' E 009°04'0 0.0
2016-May-29 10:31N 39°13' E 009°04'0 0.0
2016-May-29 09:31N 39°13' E 009°04'0 0.0
2016-May-29 08:31N 39°13' E 009°04'0 0.0
2016-May-29 07:31N 39°13' E 009°04'0 0.0
2016-May-29 06:31N 39°13' E 009°04'0 0.0
2016-May-29 05:31N 39°13' E 009°04'0 0.0
2016-May-29 04:33N 39°13' E 009°04'6 6.0
2016-May-29 03:33N 39°07' E 009°07'1212.0
2016-May-29 02:33N 38°56' E 009°05'1716.4
2016-May-29 01:33N 38°42' E 008°53'1515.3
2016-May-29 00:33N 38°39' E 008°34'1322.8
2016-May-29 00:00N 38°36' E 008°18'3815.7 050 / 81013.0 5.4 0.519.017.420.0
2016-May-28 21:33N 38°42' E 007°30'14617.6
2016-May-28 13:14N 38°52' E 004°23'3417.2
2016-May-28 11:15N 38°55' E 003°39'1217.8
2016-May-28 10:33N 38°56' E 003°23'1817.9
2016-May-28 09:33N 38°57' E 003°00'1818.3
2016-May-28 08:33N 39°01' E 002°37'1818.3
2016-May-28 07:33N 39°07' E 002°15'1818.2
2016-May-28 06:33N 39°12' E 001°52'1818.0
2016-May-28 05:33N 39°18' E 001°30'1919.1
2016-May-28 04:33N 39°23' E 001°06'1918.9
2016-May-28 03:33N 39°25' E 000°42'4218.5
2016-May-28 01:18N 39°25' W 000°12'6 7.9
2016-May-28 00:33N 39°27' W 000°19'0 0.0
2016-May-27 23:31N 39°27' W 000°19'0 0.0
2016-May-27 22:31N 39°27' W 000°19'0 0.0
2016-May-27 21:31N 39°27' W 000°19'0 0.0
2016-May-27 20:31N 39°27' W 000°19'0 0.0
2016-May-27 19:31N 39°27' W 000°19'0 0.0
2016-May-27 18:31N 39°27' W 000°19'0 0.0
2016-May-27 17:31N 39°27' W 000°19'0 0.0
2016-May-27 16:31N 39°27' W 000°19'0 0.0
2016-May-27 15:31N 39°27' W 000°19'0 0.0
2016-May-27 14:31N 39°27' W 000°19'0 0.0
2016-May-27 13:25N 39°27' W 000°19'0 0.0
2016-May-27 12:28N 39°27' W 000°19'0 0.0
2016-May-27 11:31N 39°27' W 000°19'0 0.0
2016-May-27 10:31N 39°27' W 000°19'0 0.0
2016-May-27 09:31N 39°27' W 000°19'0 0.0
2016-May-27 08:31N 39°27' W 000°19'0 0.0
2016-May-27 07:31N 39°27' W 000°19'2 2.4
2016-May-27 06:33N 39°25' W 000°17'2 1.8
2016-May-27 05:33N 39°25' W 000°15'6012.0
2016-May-27 00:33N 38°30' E 000°17'1526.0
2016-May-27 00:00N 38°18' E 000°06'3 6.1 220 / 101014.0 5.4 0.519.015.620.0
2016-May-26 23:33N 38°15' E 000°05'1716.8
2016-May-26 22:34N 38°01' W 000°06'1717.1
2016-May-26 21:33N 37°47' W 000°18'1716.8
2016-May-26 20:33N 37°32' W 000°29'1716.7
2016-May-26 19:33N 37°23' W 000°46'23116.5
2016-May-26 05:33N 35°59' W 005°15'13 1.3
2016-May-25 19:28N 35°54' W 005°30'25813.3
2016-May-25 00:00N 35°48' W 010°48'1615.8 280 / 121015.010.8 1.017.013.516.0
2016-May-24 23:00N 35°42' W 011°06'35814.9 300 / 151016.310.8 17.011.514.0
2016-May-23 23:00N 35°12' W 018°24'35315.4 100 / 181019.3 5.4 18.014.618.0
2016-May-23 00:05N 34°24' W 025°30'1015.4
2016-May-22 23:27N 34°22' W 025°41'1515.4
2016-May-22 22:28N 34°19' W 025°59'  

Dump ship's entire track history